<?xml version="1.0" encoding="UTF-8" standalone="no" ?>
<gpx xmlns="http://www.topografix.com/GPX/1/1" xmlns:xsi="http://www.w3.org/2001/XMLSchema-instance" xsi:schemaLocation="http://www.topografix.com/GPX/1/1 http://www.topografix.com/GPX/1/1/gpx.xsd" version="1.1" creator="VisuGPX - https://www.visugpx.com">
  <metadata>
    <name>randonnée</name>
  </metadata>
  <trk>
    <name><![CDATA[Tracé actuel: 30 JUIL 2019 08:18]]></name>
    <trkseg>
      <trkpt lat="49.63435" lon="4.98034">
        <ele>184.23</ele>
        <time>2019-07-30T06:18:32Z</time>
      </trkpt>
      <trkpt lat="49.63443" lon="4.98034">
        <ele>177.98</ele>
        <time>2019-07-30T06:19:03Z</time>
      </trkpt>
      <trkpt lat="49.63447" lon="4.9804">
        <ele>177.5</ele>
        <time>2019-07-30T06:19:32Z</time>
      </trkpt>
      <trkpt lat="49.63457" lon="4.98039">
        <ele>183.27</ele>
        <time>2019-07-30T06:19:55Z</time>
      </trkpt>
      <trkpt lat="49.63446" lon="4.98054">
        <ele>187.11</ele>
        <time>2019-07-30T06:20:14Z</time>
      </trkpt>
      <trkpt lat="49.63443" lon="4.98043">
        <ele>188.08</ele>
        <time>2019-07-30T06:20:29Z</time>
      </trkpt>
      <trkpt lat="49.63432" lon="4.98027">
        <ele>188.08</ele>
        <time>2019-07-30T06:20:46Z</time>
      </trkpt>
      <trkpt lat="49.63428" lon="4.98023">
        <ele>187.59</ele>
        <time>2019-07-30T06:20:51Z</time>
      </trkpt>
      <trkpt lat="49.63414" lon="4.9801">
        <ele>183.27</ele>
        <time>2019-07-30T06:21:06Z</time>
      </trkpt>
      <trkpt lat="49.63401" lon="4.97991">
        <ele>180.87</ele>
        <time>2019-07-30T06:21:21Z</time>
      </trkpt>
      <trkpt lat="49.63395" lon="4.9798">
        <ele>179.9</ele>
        <time>2019-07-30T06:21:30Z</time>
      </trkpt>
      <trkpt lat="49.63391" lon="4.9796">
        <ele>178.94</ele>
        <time>2019-07-30T06:21:47Z</time>
      </trkpt>
      <trkpt lat="49.63387" lon="4.97942">
        <ele>174.14</ele>
        <time>2019-07-30T06:22:03Z</time>
      </trkpt>
      <trkpt lat="49.63392" lon="4.97935">
        <ele>171.73</ele>
        <time>2019-07-30T06:22:17Z</time>
      </trkpt>
      <trkpt lat="49.63406" lon="4.97925">
        <ele>169.33</ele>
        <time>2019-07-30T06:22:33Z</time>
      </trkpt>
      <trkpt lat="49.63423" lon="4.97914">
        <ele>167.41</ele>
        <time>2019-07-30T06:22:50Z</time>
      </trkpt>
      <trkpt lat="49.63433" lon="4.97907">
        <ele>166.93</ele>
        <time>2019-07-30T06:23:02Z</time>
      </trkpt>
      <trkpt lat="49.63454" lon="4.97897">
        <ele>166.45</ele>
        <time>2019-07-30T06:23:22Z</time>
      </trkpt>
      <trkpt lat="49.6347" lon="4.97882">
        <ele>162.12</ele>
        <time>2019-07-30T06:23:41Z</time>
      </trkpt>
      <trkpt lat="49.63475" lon="4.97874">
        <ele>161.16</ele>
        <time>2019-07-30T06:23:47Z</time>
      </trkpt>
      <trkpt lat="49.63482" lon="4.97862">
        <ele>161.64</ele>
        <time>2019-07-30T06:23:57Z</time>
      </trkpt>
      <trkpt lat="49.63491" lon="4.9784">
        <ele>163.08</ele>
        <time>2019-07-30T06:24:15Z</time>
      </trkpt>
      <trkpt lat="49.63499" lon="4.97826">
        <ele>163.08</ele>
        <time>2019-07-30T06:24:27Z</time>
      </trkpt>
      <trkpt lat="49.63516" lon="4.97815">
        <ele>165.96</ele>
        <time>2019-07-30T06:24:42Z</time>
      </trkpt>
      <trkpt lat="49.63526" lon="4.978">
        <ele>165.96</ele>
        <time>2019-07-30T06:24:57Z</time>
      </trkpt>
      <trkpt lat="49.63538" lon="4.97783">
        <ele>166.45</ele>
        <time>2019-07-30T06:25:14Z</time>
      </trkpt>
      <trkpt lat="49.63553" lon="4.97759">
        <ele>165.48</ele>
        <time>2019-07-30T06:25:31Z</time>
      </trkpt>
      <trkpt lat="49.63563" lon="4.97734">
        <ele>162.12</ele>
        <time>2019-07-30T06:25:48Z</time>
      </trkpt>
      <trkpt lat="49.6357" lon="4.97717">
        <ele>159.24</ele>
        <time>2019-07-30T06:26:02Z</time>
      </trkpt>
      <trkpt lat="49.63572" lon="4.97711">
        <ele>159.24</ele>
        <time>2019-07-30T06:26:05Z</time>
      </trkpt>
      <trkpt lat="49.63584" lon="4.97696">
        <ele>162.6</ele>
        <time>2019-07-30T06:26:20Z</time>
      </trkpt>
      <trkpt lat="49.63594" lon="4.9768">
        <ele>161.16</ele>
        <time>2019-07-30T06:26:35Z</time>
      </trkpt>
      <trkpt lat="49.63607" lon="4.97672">
        <ele>163.08</ele>
        <time>2019-07-30T06:26:48Z</time>
      </trkpt>
      <trkpt lat="49.63612" lon="4.97666">
        <ele>164.52</ele>
        <time>2019-07-30T06:27:06Z</time>
      </trkpt>
      <trkpt lat="49.63612" lon="4.97664">
        <ele>165</ele>
        <time>2019-07-30T06:27:16Z</time>
      </trkpt>
      <trkpt lat="49.63622" lon="4.97675">
        <ele>165.48</ele>
        <time>2019-07-30T06:27:31Z</time>
      </trkpt>
      <trkpt lat="49.63624" lon="4.97677">
        <ele>165.48</ele>
        <time>2019-07-30T06:27:33Z</time>
      </trkpt>
      <trkpt lat="49.6363" lon="4.97684">
        <ele>165</ele>
        <time>2019-07-30T06:27:48Z</time>
      </trkpt>
      <trkpt lat="49.63631" lon="4.97683">
        <ele>164.52</ele>
        <time>2019-07-30T06:28:08Z</time>
      </trkpt>
      <trkpt lat="49.63632" lon="4.97681">
        <ele>166.45</ele>
        <time>2019-07-30T06:28:36Z</time>
      </trkpt>
      <trkpt lat="49.63633" lon="4.97681">
        <ele>166.45</ele>
        <time>2019-07-30T06:28:57Z</time>
      </trkpt>
      <trkpt lat="49.63632" lon="4.9768">
        <ele>166.45</ele>
        <time>2019-07-30T06:29:17Z</time>
      </trkpt>
      <trkpt lat="49.63632" lon="4.97679">
        <ele>167.89</ele>
        <time>2019-07-30T06:29:45Z</time>
      </trkpt>
      <trkpt lat="49.63632" lon="4.97679">
        <ele>168.37</ele>
        <time>2019-07-30T06:30:03Z</time>
      </trkpt>
      <trkpt lat="49.63632" lon="4.97679">
        <ele>168.85</ele>
        <time>2019-07-30T06:30:18Z</time>
      </trkpt>
      <trkpt lat="49.63632" lon="4.97678">
        <ele>169.81</ele>
        <time>2019-07-30T06:30:46Z</time>
      </trkpt>
      <trkpt lat="49.63632" lon="4.97678">
        <ele>170.29</ele>
        <time>2019-07-30T06:31:14Z</time>
      </trkpt>
      <trkpt lat="49.63632" lon="4.97678">
        <ele>170.29</ele>
        <time>2019-07-30T06:31:33Z</time>
      </trkpt>
      <trkpt lat="49.63634" lon="4.97683">
        <ele>169.33</ele>
        <time>2019-07-30T06:31:50Z</time>
      </trkpt>
      <trkpt lat="49.6365" lon="4.97701">
        <ele>165.96</ele>
        <time>2019-07-30T06:32:07Z</time>
      </trkpt>
      <trkpt lat="49.63662" lon="4.97714">
        <ele>165.48</ele>
        <time>2019-07-30T06:32:22Z</time>
      </trkpt>
      <trkpt lat="49.63683" lon="4.9773">
        <ele>165</ele>
        <time>2019-07-30T06:32:41Z</time>
      </trkpt>
      <trkpt lat="49.63699" lon="4.97739">
        <ele>163.56</ele>
        <time>2019-07-30T06:32:57Z</time>
      </trkpt>
      <trkpt lat="49.63718" lon="4.97756">
        <ele>167.41</ele>
        <time>2019-07-30T06:33:17Z</time>
      </trkpt>
      <trkpt lat="49.63731" lon="4.9777">
        <ele>165</ele>
        <time>2019-07-30T06:33:32Z</time>
      </trkpt>
      <trkpt lat="49.63746" lon="4.97779">
        <ele>164.04</ele>
        <time>2019-07-30T06:33:46Z</time>
      </trkpt>
      <trkpt lat="49.63763" lon="4.97792">
        <ele>163.56</ele>
        <time>2019-07-30T06:34:02Z</time>
      </trkpt>
      <trkpt lat="49.6378" lon="4.97806">
        <ele>163.08</ele>
        <time>2019-07-30T06:34:18Z</time>
      </trkpt>
      <trkpt lat="49.63794" lon="4.97822">
        <ele>162.6</ele>
        <time>2019-07-30T06:34:35Z</time>
      </trkpt>
      <trkpt lat="49.63801" lon="4.97829">
        <ele>163.08</ele>
        <time>2019-07-30T06:34:42Z</time>
      </trkpt>
      <trkpt lat="49.63813" lon="4.97841">
        <ele>161.64</ele>
        <time>2019-07-30T06:34:54Z</time>
      </trkpt>
      <trkpt lat="49.63828" lon="4.97855">
        <ele>160.68</ele>
        <time>2019-07-30T06:35:09Z</time>
      </trkpt>
      <trkpt lat="49.63844" lon="4.97868">
        <ele>160.68</ele>
        <time>2019-07-30T06:35:25Z</time>
      </trkpt>
      <trkpt lat="49.63856" lon="4.97882">
        <ele>160.68</ele>
        <time>2019-07-30T06:35:38Z</time>
      </trkpt>
      <trkpt lat="49.63859" lon="4.97884">
        <ele>160.2</ele>
        <time>2019-07-30T06:35:41Z</time>
      </trkpt>
      <trkpt lat="49.63874" lon="4.97897">
        <ele>156.83</ele>
        <time>2019-07-30T06:35:56Z</time>
      </trkpt>
      <trkpt lat="49.63889" lon="4.97913">
        <ele>157.79</ele>
        <time>2019-07-30T06:36:15Z</time>
      </trkpt>
      <trkpt lat="49.63905" lon="4.97927">
        <ele>157.79</ele>
        <time>2019-07-30T06:36:31Z</time>
      </trkpt>
      <trkpt lat="49.63919" lon="4.97944">
        <ele>158.27</ele>
        <time>2019-07-30T06:36:46Z</time>
      </trkpt>
      <trkpt lat="49.63937" lon="4.97958">
        <ele>164.04</ele>
        <time>2019-07-30T06:37:05Z</time>
      </trkpt>
      <trkpt lat="49.63952" lon="4.97972">
        <ele>162.6</ele>
        <time>2019-07-30T06:37:20Z</time>
      </trkpt>
      <trkpt lat="49.6397" lon="4.97989">
        <ele>163.56</ele>
        <time>2019-07-30T06:37:39Z</time>
      </trkpt>
      <trkpt lat="49.63984" lon="4.98004">
        <ele>163.56</ele>
        <time>2019-07-30T06:37:55Z</time>
      </trkpt>
      <trkpt lat="49.63999" lon="4.98018">
        <ele>161.64</ele>
        <time>2019-07-30T06:38:10Z</time>
      </trkpt>
      <trkpt lat="49.64012" lon="4.9803">
        <ele>161.16</ele>
        <time>2019-07-30T06:38:22Z</time>
      </trkpt>
      <trkpt lat="49.64027" lon="4.98044">
        <ele>163.56</ele>
        <time>2019-07-30T06:38:38Z</time>
      </trkpt>
      <trkpt lat="49.64039" lon="4.98055">
        <ele>165.48</ele>
        <time>2019-07-30T06:38:51Z</time>
      </trkpt>
      <trkpt lat="49.64052" lon="4.98065">
        <ele>166.45</ele>
        <time>2019-07-30T06:39:05Z</time>
      </trkpt>
      <trkpt lat="49.64067" lon="4.98081">
        <ele>164.52</ele>
        <time>2019-07-30T06:39:20Z</time>
      </trkpt>
      <trkpt lat="49.64081" lon="4.98095">
        <ele>164.04</ele>
        <time>2019-07-30T06:39:36Z</time>
      </trkpt>
      <trkpt lat="49.64097" lon="4.98109">
        <ele>163.08</ele>
        <time>2019-07-30T06:39:52Z</time>
      </trkpt>
      <trkpt lat="49.64109" lon="4.98119">
        <ele>161.64</ele>
        <time>2019-07-30T06:40:05Z</time>
      </trkpt>
      <trkpt lat="49.64126" lon="4.98135">
        <ele>165.48</ele>
        <time>2019-07-30T06:40:22Z</time>
      </trkpt>
      <trkpt lat="49.64134" lon="4.98143">
        <ele>166.93</ele>
        <time>2019-07-30T06:40:32Z</time>
      </trkpt>
      <trkpt lat="49.64147" lon="4.98157">
        <ele>165.96</ele>
        <time>2019-07-30T06:40:45Z</time>
      </trkpt>
      <trkpt lat="49.64161" lon="4.98171">
        <ele>165.96</ele>
        <time>2019-07-30T06:41:00Z</time>
      </trkpt>
      <trkpt lat="49.6418" lon="4.98185">
        <ele>165</ele>
        <time>2019-07-30T06:41:19Z</time>
      </trkpt>
      <trkpt lat="49.64188" lon="4.98191">
        <ele>165.48</ele>
        <time>2019-07-30T06:41:30Z</time>
      </trkpt>
      <trkpt lat="49.64209" lon="4.98213">
        <ele>162.6</ele>
        <time>2019-07-30T06:41:50Z</time>
      </trkpt>
      <trkpt lat="49.64229" lon="4.98229">
        <ele>163.56</ele>
        <time>2019-07-30T06:42:08Z</time>
      </trkpt>
      <trkpt lat="49.64236" lon="4.98239">
        <ele>164.04</ele>
        <time>2019-07-30T06:42:19Z</time>
      </trkpt>
      <trkpt lat="49.64241" lon="4.98243">
        <ele>164.52</ele>
        <time>2019-07-30T06:42:23Z</time>
      </trkpt>
      <trkpt lat="49.64258" lon="4.98259">
        <ele>162.6</ele>
        <time>2019-07-30T06:42:42Z</time>
      </trkpt>
      <trkpt lat="49.64271" lon="4.98271">
        <ele>162.6</ele>
        <time>2019-07-30T06:42:57Z</time>
      </trkpt>
      <trkpt lat="49.64285" lon="4.98285">
        <ele>164.04</ele>
        <time>2019-07-30T06:43:13Z</time>
      </trkpt>
      <trkpt lat="49.64298" lon="4.98296">
        <ele>164.04</ele>
        <time>2019-07-30T06:43:27Z</time>
      </trkpt>
      <trkpt lat="49.64316" lon="4.98312">
        <ele>162.6</ele>
        <time>2019-07-30T06:43:45Z</time>
      </trkpt>
      <trkpt lat="49.64328" lon="4.98321">
        <ele>163.08</ele>
        <time>2019-07-30T06:43:57Z</time>
      </trkpt>
      <trkpt lat="49.64347" lon="4.98336">
        <ele>163.08</ele>
        <time>2019-07-30T06:44:14Z</time>
      </trkpt>
      <trkpt lat="49.64363" lon="4.98347">
        <ele>162.12</ele>
        <time>2019-07-30T06:44:31Z</time>
      </trkpt>
      <trkpt lat="49.6438" lon="4.98361">
        <ele>164.04</ele>
        <time>2019-07-30T06:44:47Z</time>
      </trkpt>
      <trkpt lat="49.64393" lon="4.98368">
        <ele>163.08</ele>
        <time>2019-07-30T06:45:02Z</time>
      </trkpt>
      <trkpt lat="49.64409" lon="4.98383">
        <ele>163.56</ele>
        <time>2019-07-30T06:45:17Z</time>
      </trkpt>
      <trkpt lat="49.64427" lon="4.98396">
        <ele>164.04</ele>
        <time>2019-07-30T06:45:36Z</time>
      </trkpt>
      <trkpt lat="49.64442" lon="4.98402">
        <ele>160.68</ele>
        <time>2019-07-30T06:45:51Z</time>
      </trkpt>
      <trkpt lat="49.64454" lon="4.98412">
        <ele>161.64</ele>
        <time>2019-07-30T06:46:02Z</time>
      </trkpt>
      <trkpt lat="49.64469" lon="4.98419">
        <ele>159.24</ele>
        <time>2019-07-30T06:46:18Z</time>
      </trkpt>
      <trkpt lat="49.64489" lon="4.98433">
        <ele>158.75</ele>
        <time>2019-07-30T06:46:36Z</time>
      </trkpt>
      <trkpt lat="49.64506" lon="4.98442">
        <ele>159.24</ele>
        <time>2019-07-30T06:46:54Z</time>
      </trkpt>
      <trkpt lat="49.64527" lon="4.98454">
        <ele>160.2</ele>
        <time>2019-07-30T06:47:12Z</time>
      </trkpt>
      <trkpt lat="49.64548" lon="4.98465">
        <ele>159.72</ele>
        <time>2019-07-30T06:47:30Z</time>
      </trkpt>
      <trkpt lat="49.64566" lon="4.98474">
        <ele>158.75</ele>
        <time>2019-07-30T06:47:47Z</time>
      </trkpt>
      <trkpt lat="49.64583" lon="4.98485">
        <ele>158.75</ele>
        <time>2019-07-30T06:48:03Z</time>
      </trkpt>
      <trkpt lat="49.64599" lon="4.98493">
        <ele>159.72</ele>
        <time>2019-07-30T06:48:20Z</time>
      </trkpt>
      <trkpt lat="49.64603" lon="4.98493">
        <ele>158.27</ele>
        <time>2019-07-30T06:48:28Z</time>
      </trkpt>
      <trkpt lat="49.64599" lon="4.98491">
        <ele>160.2</ele>
        <time>2019-07-30T06:48:43Z</time>
      </trkpt>
      <trkpt lat="49.64606" lon="4.98492">
        <ele>159.72</ele>
        <time>2019-07-30T06:48:57Z</time>
      </trkpt>
      <trkpt lat="49.64607" lon="4.98493">
        <ele>159.24</ele>
        <time>2019-07-30T06:48:58Z</time>
      </trkpt>
      <trkpt lat="49.64624" lon="4.98504">
        <ele>156.35</ele>
        <time>2019-07-30T06:49:16Z</time>
      </trkpt>
      <trkpt lat="49.64642" lon="4.98514">
        <ele>156.35</ele>
        <time>2019-07-30T06:49:31Z</time>
      </trkpt>
      <trkpt lat="49.64654" lon="4.98523">
        <ele>158.27</ele>
        <time>2019-07-30T06:49:43Z</time>
      </trkpt>
      <trkpt lat="49.64671" lon="4.98533">
        <ele>157.31</ele>
        <time>2019-07-30T06:49:59Z</time>
      </trkpt>
      <trkpt lat="49.64672" lon="4.98533">
        <ele>157.31</ele>
        <time>2019-07-30T06:50:00Z</time>
      </trkpt>
      <trkpt lat="49.64689" lon="4.9854">
        <ele>156.35</ele>
        <time>2019-07-30T06:50:17Z</time>
      </trkpt>
      <trkpt lat="49.64707" lon="4.98548">
        <ele>153.95</ele>
        <time>2019-07-30T06:50:33Z</time>
      </trkpt>
      <trkpt lat="49.6472" lon="4.98554">
        <ele>152.51</ele>
        <time>2019-07-30T06:50:47Z</time>
      </trkpt>
      <trkpt lat="49.64739" lon="4.98563">
        <ele>152.51</ele>
        <time>2019-07-30T06:51:05Z</time>
      </trkpt>
      <trkpt lat="49.64758" lon="4.98572">
        <ele>152.51</ele>
        <time>2019-07-30T06:51:23Z</time>
      </trkpt>
      <trkpt lat="49.64762" lon="4.98575">
        <ele>152.99</ele>
        <time>2019-07-30T06:51:27Z</time>
      </trkpt>
      <trkpt lat="49.64778" lon="4.98583">
        <ele>153.47</ele>
        <time>2019-07-30T06:51:42Z</time>
      </trkpt>
      <trkpt lat="49.64796" lon="4.98597">
        <ele>155.87</ele>
        <time>2019-07-30T06:52:00Z</time>
      </trkpt>
      <trkpt lat="49.64812" lon="4.98606">
        <ele>157.31</ele>
        <time>2019-07-30T06:52:16Z</time>
      </trkpt>
      <trkpt lat="49.64834" lon="4.9862">
        <ele>154.91</ele>
        <time>2019-07-30T06:52:35Z</time>
      </trkpt>
      <trkpt lat="49.64857" lon="4.98635">
        <ele>154.43</ele>
        <time>2019-07-30T06:52:57Z</time>
      </trkpt>
      <trkpt lat="49.64873" lon="4.98647">
        <ele>154.43</ele>
        <time>2019-07-30T06:53:15Z</time>
      </trkpt>
      <trkpt lat="49.6489" lon="4.98658">
        <ele>154.43</ele>
        <time>2019-07-30T06:53:32Z</time>
      </trkpt>
      <trkpt lat="49.6491" lon="4.98671">
        <ele>152.03</ele>
        <time>2019-07-30T06:53:52Z</time>
      </trkpt>
      <trkpt lat="49.6493" lon="4.9868">
        <ele>153.95</ele>
        <time>2019-07-30T06:54:10Z</time>
      </trkpt>
      <trkpt lat="49.64944" lon="4.98692">
        <ele>154.43</ele>
        <time>2019-07-30T06:54:26Z</time>
      </trkpt>
      <trkpt lat="49.64961" lon="4.98706">
        <ele>154.91</ele>
        <time>2019-07-30T06:54:43Z</time>
      </trkpt>
      <trkpt lat="49.6498" lon="4.98723">
        <ele>155.87</ele>
        <time>2019-07-30T06:55:02Z</time>
      </trkpt>
      <trkpt lat="49.64997" lon="4.98739">
        <ele>156.83</ele>
        <time>2019-07-30T06:55:21Z</time>
      </trkpt>
      <trkpt lat="49.65006" lon="4.98744">
        <ele>155.87</ele>
        <time>2019-07-30T06:55:29Z</time>
      </trkpt>
      <trkpt lat="49.65022" lon="4.9876">
        <ele>154.91</ele>
        <time>2019-07-30T06:55:46Z</time>
      </trkpt>
      <trkpt lat="49.65041" lon="4.98778">
        <ele>155.87</ele>
        <time>2019-07-30T06:56:05Z</time>
      </trkpt>
      <trkpt lat="49.65055" lon="4.98792">
        <ele>156.35</ele>
        <time>2019-07-30T06:56:21Z</time>
      </trkpt>
      <trkpt lat="49.65072" lon="4.98809">
        <ele>155.39</ele>
        <time>2019-07-30T06:56:40Z</time>
      </trkpt>
      <trkpt lat="49.65089" lon="4.98826">
        <ele>154.43</ele>
        <time>2019-07-30T06:56:59Z</time>
      </trkpt>
      <trkpt lat="49.65107" lon="4.9884">
        <ele>154.91</ele>
        <time>2019-07-30T06:57:16Z</time>
      </trkpt>
      <trkpt lat="49.65111" lon="4.98846">
        <ele>154.91</ele>
        <time>2019-07-30T06:57:23Z</time>
      </trkpt>
      <trkpt lat="49.65128" lon="4.98863">
        <ele>154.43</ele>
        <time>2019-07-30T06:57:41Z</time>
      </trkpt>
      <trkpt lat="49.65129" lon="4.98865">
        <ele>154.43</ele>
        <time>2019-07-30T06:57:43Z</time>
      </trkpt>
      <trkpt lat="49.65135" lon="4.98871">
        <ele>154.91</ele>
        <time>2019-07-30T06:57:49Z</time>
      </trkpt>
      <trkpt lat="49.65149" lon="4.98888">
        <ele>153.95</ele>
        <time>2019-07-30T06:58:06Z</time>
      </trkpt>
      <trkpt lat="49.65166" lon="4.98906">
        <ele>153.95</ele>
        <time>2019-07-30T06:58:25Z</time>
      </trkpt>
      <trkpt lat="49.65183" lon="4.98921">
        <ele>154.91</ele>
        <time>2019-07-30T06:58:43Z</time>
      </trkpt>
      <trkpt lat="49.65199" lon="4.98935">
        <ele>156.83</ele>
        <time>2019-07-30T06:59:00Z</time>
      </trkpt>
      <trkpt lat="49.65215" lon="4.98948">
        <ele>155.39</ele>
        <time>2019-07-30T06:59:15Z</time>
      </trkpt>
      <trkpt lat="49.65234" lon="4.98963">
        <ele>155.39</ele>
        <time>2019-07-30T06:59:34Z</time>
      </trkpt>
      <trkpt lat="49.65251" lon="4.98977">
        <ele>154.91</ele>
        <time>2019-07-30T06:59:52Z</time>
      </trkpt>
      <trkpt lat="49.65269" lon="4.98993">
        <ele>152.99</ele>
        <time>2019-07-30T07:00:11Z</time>
      </trkpt>
      <trkpt lat="49.65285" lon="4.99005">
        <ele>154.43</ele>
        <time>2019-07-30T07:00:27Z</time>
      </trkpt>
      <trkpt lat="49.65293" lon="4.99014">
        <ele>154.91</ele>
        <time>2019-07-30T07:00:34Z</time>
      </trkpt>
      <trkpt lat="49.65309" lon="4.99029">
        <ele>154.43</ele>
        <time>2019-07-30T07:00:51Z</time>
      </trkpt>
      <trkpt lat="49.6532" lon="4.99042">
        <ele>155.87</ele>
        <time>2019-07-30T07:01:07Z</time>
      </trkpt>
      <trkpt lat="49.65324" lon="4.99055">
        <ele>155.39</ele>
        <time>2019-07-30T07:01:18Z</time>
      </trkpt>
      <trkpt lat="49.65333" lon="4.99083">
        <ele>153.95</ele>
        <time>2019-07-30T07:01:37Z</time>
      </trkpt>
      <trkpt lat="49.65342" lon="4.9911">
        <ele>151.06</ele>
        <time>2019-07-30T07:01:55Z</time>
      </trkpt>
      <trkpt lat="49.65343" lon="4.99112">
        <ele>150.58</ele>
        <time>2019-07-30T07:01:57Z</time>
      </trkpt>
      <trkpt lat="49.65349" lon="4.99137">
        <ele>153.47</ele>
        <time>2019-07-30T07:02:14Z</time>
      </trkpt>
      <trkpt lat="49.65361" lon="4.99157">
        <ele>154.43</ele>
        <time>2019-07-30T07:02:31Z</time>
      </trkpt>
      <trkpt lat="49.65371" lon="4.99177">
        <ele>153.47</ele>
        <time>2019-07-30T07:02:47Z</time>
      </trkpt>
      <trkpt lat="49.65368" lon="4.99182">
        <ele>154.43</ele>
        <time>2019-07-30T07:02:52Z</time>
      </trkpt>
      <trkpt lat="49.65372" lon="4.99195">
        <ele>154.43</ele>
        <time>2019-07-30T07:03:01Z</time>
      </trkpt>
      <trkpt lat="49.65381" lon="4.99187">
        <ele>154.43</ele>
        <time>2019-07-30T07:03:10Z</time>
      </trkpt>
      <trkpt lat="49.65395" lon="4.99196">
        <ele>154.91</ele>
        <time>2019-07-30T07:03:25Z</time>
      </trkpt>
      <trkpt lat="49.65395" lon="4.99198">
        <ele>154.91</ele>
        <time>2019-07-30T07:03:26Z</time>
      </trkpt>
      <trkpt lat="49.65411" lon="4.99221">
        <ele>155.87</ele>
        <time>2019-07-30T07:03:45Z</time>
      </trkpt>
      <trkpt lat="49.65423" lon="4.99234">
        <ele>154.91</ele>
        <time>2019-07-30T07:03:59Z</time>
      </trkpt>
      <trkpt lat="49.65437" lon="4.99258">
        <ele>155.39</ele>
        <time>2019-07-30T07:04:16Z</time>
      </trkpt>
      <trkpt lat="49.65451" lon="4.99279">
        <ele>156.35</ele>
        <time>2019-07-30T07:04:35Z</time>
      </trkpt>
      <trkpt lat="49.65454" lon="4.99282">
        <ele>156.35</ele>
        <time>2019-07-30T07:04:38Z</time>
      </trkpt>
      <trkpt lat="49.65465" lon="4.99281">
        <ele>156.83</ele>
        <time>2019-07-30T07:04:47Z</time>
      </trkpt>
      <trkpt lat="49.6547" lon="4.99276">
        <ele>157.31</ele>
        <time>2019-07-30T07:04:51Z</time>
      </trkpt>
      <trkpt lat="49.65479" lon="4.99252">
        <ele>158.27</ele>
        <time>2019-07-30T07:05:07Z</time>
      </trkpt>
      <trkpt lat="49.65489" lon="4.99225">
        <ele>162.12</ele>
        <time>2019-07-30T07:05:26Z</time>
      </trkpt>
      <trkpt lat="49.65498" lon="4.99199">
        <ele>160.68</ele>
        <time>2019-07-30T07:05:46Z</time>
      </trkpt>
      <trkpt lat="49.65501" lon="4.99197">
        <ele>159.72</ele>
        <time>2019-07-30T07:05:50Z</time>
      </trkpt>
      <trkpt lat="49.6552" lon="4.99208">
        <ele>156.83</ele>
        <time>2019-07-30T07:06:08Z</time>
      </trkpt>
      <trkpt lat="49.65537" lon="4.99218">
        <ele>155.39</ele>
        <time>2019-07-30T07:06:26Z</time>
      </trkpt>
      <trkpt lat="49.65551" lon="4.99231">
        <ele>156.35</ele>
        <time>2019-07-30T07:06:41Z</time>
      </trkpt>
      <trkpt lat="49.65563" lon="4.99245">
        <ele>156.35</ele>
        <time>2019-07-30T07:06:56Z</time>
      </trkpt>
      <trkpt lat="49.65568" lon="4.99241">
        <ele>156.35</ele>
        <time>2019-07-30T07:07:09Z</time>
      </trkpt>
      <trkpt lat="49.65568" lon="4.99238">
        <ele>156.35</ele>
        <time>2019-07-30T07:07:25Z</time>
      </trkpt>
      <trkpt lat="49.65568" lon="4.99237">
        <ele>157.79</ele>
        <time>2019-07-30T07:07:42Z</time>
      </trkpt>
      <trkpt lat="49.65569" lon="4.99237">
        <ele>158.27</ele>
        <time>2019-07-30T07:08:11Z</time>
      </trkpt>
      <trkpt lat="49.65569" lon="4.99236">
        <ele>158.27</ele>
        <time>2019-07-30T07:08:37Z</time>
      </trkpt>
      <trkpt lat="49.65569" lon="4.99235">
        <ele>158.27</ele>
        <time>2019-07-30T07:08:56Z</time>
      </trkpt>
      <trkpt lat="49.65567" lon="4.99236">
        <ele>157.79</ele>
        <time>2019-07-30T07:09:13Z</time>
      </trkpt>
      <trkpt lat="49.65568" lon="4.99236">
        <ele>157.79</ele>
        <time>2019-07-30T07:09:31Z</time>
      </trkpt>
      <trkpt lat="49.65567" lon="4.99236">
        <ele>157.79</ele>
        <time>2019-07-30T07:09:52Z</time>
      </trkpt>
      <trkpt lat="49.65566" lon="4.99237">
        <ele>158.27</ele>
        <time>2019-07-30T07:10:07Z</time>
      </trkpt>
      <trkpt lat="49.65579" lon="4.99222">
        <ele>157.79</ele>
        <time>2019-07-30T07:10:24Z</time>
      </trkpt>
      <trkpt lat="49.65596" lon="4.99201">
        <ele>158.27</ele>
        <time>2019-07-30T07:10:43Z</time>
      </trkpt>
      <trkpt lat="49.65612" lon="4.99175">
        <ele>157.79</ele>
        <time>2019-07-30T07:11:01Z</time>
      </trkpt>
      <trkpt lat="49.65627" lon="4.99149">
        <ele>157.79</ele>
        <time>2019-07-30T07:11:23Z</time>
      </trkpt>
      <trkpt lat="49.6564" lon="4.99126">
        <ele>158.75</ele>
        <time>2019-07-30T07:11:41Z</time>
      </trkpt>
      <trkpt lat="49.65654" lon="4.99102">
        <ele>159.72</ele>
        <time>2019-07-30T07:11:59Z</time>
      </trkpt>
      <trkpt lat="49.65668" lon="4.99076">
        <ele>160.2</ele>
        <time>2019-07-30T07:12:19Z</time>
      </trkpt>
      <trkpt lat="49.65682" lon="4.99052">
        <ele>158.75</ele>
        <time>2019-07-30T07:12:39Z</time>
      </trkpt>
      <trkpt lat="49.65694" lon="4.99031">
        <ele>158.27</ele>
        <time>2019-07-30T07:12:56Z</time>
      </trkpt>
      <trkpt lat="49.65708" lon="4.99009">
        <ele>158.27</ele>
        <time>2019-07-30T07:13:14Z</time>
      </trkpt>
      <trkpt lat="49.65719" lon="4.98988">
        <ele>158.75</ele>
        <time>2019-07-30T07:13:31Z</time>
      </trkpt>
      <trkpt lat="49.65733" lon="4.98964">
        <ele>157.31</ele>
        <time>2019-07-30T07:13:50Z</time>
      </trkpt>
      <trkpt lat="49.65746" lon="4.9894">
        <ele>157.31</ele>
        <time>2019-07-30T07:14:09Z</time>
      </trkpt>
      <trkpt lat="49.65758" lon="4.98916">
        <ele>157.31</ele>
        <time>2019-07-30T07:14:28Z</time>
      </trkpt>
      <trkpt lat="49.6577" lon="4.98893">
        <ele>157.31</ele>
        <time>2019-07-30T07:14:45Z</time>
      </trkpt>
      <trkpt lat="49.65785" lon="4.98864">
        <ele>156.83</ele>
        <time>2019-07-30T07:15:05Z</time>
      </trkpt>
      <trkpt lat="49.65799" lon="4.98838">
        <ele>157.31</ele>
        <time>2019-07-30T07:15:25Z</time>
      </trkpt>
      <trkpt lat="49.65814" lon="4.98811">
        <ele>156.83</ele>
        <time>2019-07-30T07:15:47Z</time>
      </trkpt>
      <trkpt lat="49.65826" lon="4.98787">
        <ele>157.79</ele>
        <time>2019-07-30T07:16:06Z</time>
      </trkpt>
      <trkpt lat="49.65842" lon="4.9876">
        <ele>157.31</ele>
        <time>2019-07-30T07:16:27Z</time>
      </trkpt>
      <trkpt lat="49.65856" lon="4.98735">
        <ele>158.27</ele>
        <time>2019-07-30T07:16:46Z</time>
      </trkpt>
      <trkpt lat="49.65868" lon="4.98711">
        <ele>157.79</ele>
        <time>2019-07-30T07:17:05Z</time>
      </trkpt>
      <trkpt lat="49.6588" lon="4.98687">
        <ele>157.79</ele>
        <time>2019-07-30T07:17:24Z</time>
      </trkpt>
      <trkpt lat="49.65892" lon="4.98662">
        <ele>158.27</ele>
        <time>2019-07-30T07:17:42Z</time>
      </trkpt>
      <trkpt lat="49.65905" lon="4.98638">
        <ele>158.27</ele>
        <time>2019-07-30T07:18:01Z</time>
      </trkpt>
      <trkpt lat="49.65915" lon="4.98617">
        <ele>158.27</ele>
        <time>2019-07-30T07:18:18Z</time>
      </trkpt>
      <trkpt lat="49.65927" lon="4.98594">
        <ele>158.27</ele>
        <time>2019-07-30T07:18:35Z</time>
      </trkpt>
      <trkpt lat="49.65937" lon="4.9857">
        <ele>157.79</ele>
        <time>2019-07-30T07:18:52Z</time>
      </trkpt>
      <trkpt lat="49.65939" lon="4.98568">
        <ele>157.79</ele>
        <time>2019-07-30T07:18:54Z</time>
      </trkpt>
      <trkpt lat="49.65945" lon="4.98555">
        <ele>158.27</ele>
        <time>2019-07-30T07:19:02Z</time>
      </trkpt>
      <trkpt lat="49.65957" lon="4.98528">
        <ele>159.24</ele>
        <time>2019-07-30T07:19:21Z</time>
      </trkpt>
      <trkpt lat="49.65965" lon="4.98503">
        <ele>162.6</ele>
        <time>2019-07-30T07:19:39Z</time>
      </trkpt>
      <trkpt lat="49.65962" lon="4.98499">
        <ele>162.6</ele>
        <time>2019-07-30T07:19:42Z</time>
      </trkpt>
      <trkpt lat="49.65946" lon="4.98478">
        <ele>160.2</ele>
        <time>2019-07-30T07:20:00Z</time>
      </trkpt>
      <trkpt lat="49.6593" lon="4.98459">
        <ele>158.27</ele>
        <time>2019-07-30T07:20:18Z</time>
      </trkpt>
      <trkpt lat="49.65912" lon="4.98444">
        <ele>157.79</ele>
        <time>2019-07-30T07:20:37Z</time>
      </trkpt>
      <trkpt lat="49.6589" lon="4.98428">
        <ele>158.27</ele>
        <time>2019-07-30T07:20:58Z</time>
      </trkpt>
      <trkpt lat="49.65869" lon="4.98417">
        <ele>158.27</ele>
        <time>2019-07-30T07:21:18Z</time>
      </trkpt>
      <trkpt lat="49.65848" lon="4.98418">
        <ele>160.2</ele>
        <time>2019-07-30T07:21:36Z</time>
      </trkpt>
      <trkpt lat="49.65831" lon="4.98411">
        <ele>160.2</ele>
        <time>2019-07-30T07:21:53Z</time>
      </trkpt>
      <trkpt lat="49.65813" lon="4.98408">
        <ele>163.08</ele>
        <time>2019-07-30T07:22:10Z</time>
      </trkpt>
      <trkpt lat="49.65797" lon="4.98403">
        <ele>161.64</ele>
        <time>2019-07-30T07:22:26Z</time>
      </trkpt>
      <trkpt lat="49.65779" lon="4.98404">
        <ele>164.04</ele>
        <time>2019-07-30T07:22:43Z</time>
      </trkpt>
      <trkpt lat="49.65768" lon="4.98412">
        <ele>164.52</ele>
        <time>2019-07-30T07:22:51Z</time>
      </trkpt>
      <trkpt lat="49.65763" lon="4.98421">
        <ele>164.04</ele>
        <time>2019-07-30T07:22:56Z</time>
      </trkpt>
      <trkpt lat="49.65759" lon="4.98428">
        <ele>165.96</ele>
        <time>2019-07-30T07:23:04Z</time>
      </trkpt>
      <trkpt lat="49.65757" lon="4.9844">
        <ele>161.16</ele>
        <time>2019-07-30T07:23:18Z</time>
      </trkpt>
      <trkpt lat="49.65742" lon="4.98452">
        <ele>158.75</ele>
        <time>2019-07-30T07:23:33Z</time>
      </trkpt>
      <trkpt lat="49.6573" lon="4.98476">
        <ele>158.75</ele>
        <time>2019-07-30T07:23:51Z</time>
      </trkpt>
      <trkpt lat="49.65719" lon="4.98499">
        <ele>156.83</ele>
        <time>2019-07-30T07:24:07Z</time>
      </trkpt>
      <trkpt lat="49.65708" lon="4.9852">
        <ele>157.79</ele>
        <time>2019-07-30T07:24:22Z</time>
      </trkpt>
      <trkpt lat="49.65698" lon="4.98541">
        <ele>157.79</ele>
        <time>2019-07-30T07:24:37Z</time>
      </trkpt>
      <trkpt lat="49.65694" lon="4.98549">
        <ele>157.79</ele>
        <time>2019-07-30T07:24:42Z</time>
      </trkpt>
      <trkpt lat="49.6569" lon="4.98558">
        <ele>158.27</ele>
        <time>2019-07-30T07:24:47Z</time>
      </trkpt>
      <trkpt lat="49.65681" lon="4.98574">
        <ele>158.27</ele>
        <time>2019-07-30T07:25:01Z</time>
      </trkpt>
      <trkpt lat="49.65669" lon="4.98595">
        <ele>158.75</ele>
        <time>2019-07-30T07:25:16Z</time>
      </trkpt>
      <trkpt lat="49.65658" lon="4.98618">
        <ele>159.24</ele>
        <time>2019-07-30T07:25:34Z</time>
      </trkpt>
      <trkpt lat="49.65647" lon="4.98638">
        <ele>159.24</ele>
        <time>2019-07-30T07:25:49Z</time>
      </trkpt>
      <trkpt lat="49.65635" lon="4.98661">
        <ele>161.64</ele>
        <time>2019-07-30T07:26:05Z</time>
      </trkpt>
      <trkpt lat="49.65629" lon="4.98675">
        <ele>160.68</ele>
        <time>2019-07-30T07:26:17Z</time>
      </trkpt>
      <trkpt lat="49.65627" lon="4.98696">
        <ele>161.64</ele>
        <time>2019-07-30T07:26:29Z</time>
      </trkpt>
      <trkpt lat="49.65626" lon="4.98701">
        <ele>161.16</ele>
        <time>2019-07-30T07:26:33Z</time>
      </trkpt>
      <trkpt lat="49.65622" lon="4.98708">
        <ele>160.68</ele>
        <time>2019-07-30T07:26:38Z</time>
      </trkpt>
      <trkpt lat="49.65611" lon="4.9873">
        <ele>161.64</ele>
        <time>2019-07-30T07:26:56Z</time>
      </trkpt>
      <trkpt lat="49.65597" lon="4.98755">
        <ele>163.56</ele>
        <time>2019-07-30T07:27:14Z</time>
      </trkpt>
      <trkpt lat="49.6559" lon="4.98767">
        <ele>163.08</ele>
        <time>2019-07-30T07:27:25Z</time>
      </trkpt>
      <trkpt lat="49.65577" lon="4.98791">
        <ele>162.12</ele>
        <time>2019-07-30T07:27:40Z</time>
      </trkpt>
      <trkpt lat="49.6557" lon="4.98804">
        <ele>161.64</ele>
        <time>2019-07-30T07:27:53Z</time>
      </trkpt>
      <trkpt lat="49.65555" lon="4.98828">
        <ele>165</ele>
        <time>2019-07-30T07:28:11Z</time>
      </trkpt>
      <trkpt lat="49.65547" lon="4.9885">
        <ele>161.64</ele>
        <time>2019-07-30T07:28:29Z</time>
      </trkpt>
      <trkpt lat="49.65545" lon="4.98854">
        <ele>161.64</ele>
        <time>2019-07-30T07:28:31Z</time>
      </trkpt>
      <trkpt lat="49.65531" lon="4.98879">
        <ele>161.16</ele>
        <time>2019-07-30T07:28:47Z</time>
      </trkpt>
      <trkpt lat="49.65528" lon="4.98885">
        <ele>162.6</ele>
        <time>2019-07-30T07:28:52Z</time>
      </trkpt>
      <trkpt lat="49.65518" lon="4.98911">
        <ele>163.08</ele>
        <time>2019-07-30T07:29:09Z</time>
      </trkpt>
      <trkpt lat="49.655" lon="4.98936">
        <ele>163.08</ele>
        <time>2019-07-30T07:29:27Z</time>
      </trkpt>
      <trkpt lat="49.65492" lon="4.98953">
        <ele>163.08</ele>
        <time>2019-07-30T07:29:42Z</time>
      </trkpt>
      <trkpt lat="49.65479" lon="4.98973">
        <ele>163.56</ele>
        <time>2019-07-30T07:29:58Z</time>
      </trkpt>
      <trkpt lat="49.65467" lon="4.98993">
        <ele>161.64</ele>
        <time>2019-07-30T07:30:15Z</time>
      </trkpt>
      <trkpt lat="49.65457" lon="4.99015">
        <ele>161.64</ele>
        <time>2019-07-30T07:30:32Z</time>
      </trkpt>
      <trkpt lat="49.65452" lon="4.99027">
        <ele>162.12</ele>
        <time>2019-07-30T07:30:45Z</time>
      </trkpt>
      <trkpt lat="49.65449" lon="4.99018">
        <ele>161.16</ele>
        <time>2019-07-30T07:30:51Z</time>
      </trkpt>
      <trkpt lat="49.65445" lon="4.99018">
        <ele>160.2</ele>
        <time>2019-07-30T07:30:55Z</time>
      </trkpt>
      <trkpt lat="49.65434" lon="4.99025">
        <ele>159.24</ele>
        <time>2019-07-30T07:31:08Z</time>
      </trkpt>
      <trkpt lat="49.65424" lon="4.99023">
        <ele>160.68</ele>
        <time>2019-07-30T07:31:15Z</time>
      </trkpt>
      <trkpt lat="49.65403" lon="4.99023">
        <ele>163.56</ele>
        <time>2019-07-30T07:31:34Z</time>
      </trkpt>
      <trkpt lat="49.65387" lon="4.99029">
        <ele>162.6</ele>
        <time>2019-07-30T07:31:49Z</time>
      </trkpt>
      <trkpt lat="49.65369" lon="4.99031">
        <ele>163.08</ele>
        <time>2019-07-30T07:32:05Z</time>
      </trkpt>
      <trkpt lat="49.65364" lon="4.99032">
        <ele>162.12</ele>
        <time>2019-07-30T07:32:11Z</time>
      </trkpt>
      <trkpt lat="49.65359" lon="4.99031">
        <ele>161.64</ele>
        <time>2019-07-30T07:32:15Z</time>
      </trkpt>
      <trkpt lat="49.65339" lon="4.9903">
        <ele>160.68</ele>
        <time>2019-07-30T07:32:33Z</time>
      </trkpt>
      <trkpt lat="49.65319" lon="4.9902">
        <ele>159.24</ele>
        <time>2019-07-30T07:32:50Z</time>
      </trkpt>
      <trkpt lat="49.653" lon="4.9902">
        <ele>160.2</ele>
        <time>2019-07-30T07:33:07Z</time>
      </trkpt>
      <trkpt lat="49.65296" lon="4.99013">
        <ele>161.16</ele>
        <time>2019-07-30T07:33:13Z</time>
      </trkpt>
      <trkpt lat="49.65291" lon="4.99004">
        <ele>161.16</ele>
        <time>2019-07-30T07:33:20Z</time>
      </trkpt>
      <trkpt lat="49.65273" lon="4.98994">
        <ele>160.2</ele>
        <time>2019-07-30T07:33:37Z</time>
      </trkpt>
      <trkpt lat="49.65258" lon="4.98984">
        <ele>157.79</ele>
        <time>2019-07-30T07:33:54Z</time>
      </trkpt>
      <trkpt lat="49.65241" lon="4.98972">
        <ele>157.31</ele>
        <time>2019-07-30T07:34:10Z</time>
      </trkpt>
      <trkpt lat="49.65223" lon="4.98955">
        <ele>157.31</ele>
        <time>2019-07-30T07:34:29Z</time>
      </trkpt>
      <trkpt lat="49.65206" lon="4.98939">
        <ele>156.35</ele>
        <time>2019-07-30T07:34:46Z</time>
      </trkpt>
      <trkpt lat="49.65188" lon="4.98921">
        <ele>157.31</ele>
        <time>2019-07-30T07:35:05Z</time>
      </trkpt>
      <trkpt lat="49.65169" lon="4.98902">
        <ele>157.31</ele>
        <time>2019-07-30T07:35:24Z</time>
      </trkpt>
      <trkpt lat="49.65151" lon="4.98886">
        <ele>156.83</ele>
        <time>2019-07-30T07:35:44Z</time>
      </trkpt>
      <trkpt lat="49.65132" lon="4.98868">
        <ele>157.79</ele>
        <time>2019-07-30T07:36:04Z</time>
      </trkpt>
      <trkpt lat="49.65115" lon="4.98851">
        <ele>158.27</ele>
        <time>2019-07-30T07:36:22Z</time>
      </trkpt>
      <trkpt lat="49.651" lon="4.98835">
        <ele>159.24</ele>
        <time>2019-07-30T07:36:39Z</time>
      </trkpt>
      <trkpt lat="49.65088" lon="4.98825">
        <ele>159.24</ele>
        <time>2019-07-30T07:36:52Z</time>
      </trkpt>
      <trkpt lat="49.65073" lon="4.9881">
        <ele>160.2</ele>
        <time>2019-07-30T07:37:09Z</time>
      </trkpt>
      <trkpt lat="49.65055" lon="4.98793">
        <ele>160.2</ele>
        <time>2019-07-30T07:37:27Z</time>
      </trkpt>
      <trkpt lat="49.65038" lon="4.98777">
        <ele>160.68</ele>
        <time>2019-07-30T07:37:45Z</time>
      </trkpt>
      <trkpt lat="49.65021" lon="4.9876">
        <ele>161.16</ele>
        <time>2019-07-30T07:38:03Z</time>
      </trkpt>
      <trkpt lat="49.65" lon="4.98745">
        <ele>160.68</ele>
        <time>2019-07-30T07:38:24Z</time>
      </trkpt>
      <trkpt lat="49.64996" lon="4.98748">
        <ele>161.16</ele>
        <time>2019-07-30T07:38:29Z</time>
      </trkpt>
      <trkpt lat="49.64989" lon="4.98761">
        <ele>161.16</ele>
        <time>2019-07-30T07:38:44Z</time>
      </trkpt>
      <trkpt lat="49.64988" lon="4.98765">
        <ele>161.16</ele>
        <time>2019-07-30T07:38:47Z</time>
      </trkpt>
      <trkpt lat="49.64985" lon="4.98774">
        <ele>160.68</ele>
        <time>2019-07-30T07:38:53Z</time>
      </trkpt>
      <trkpt lat="49.6498" lon="4.98785">
        <ele>160.2</ele>
        <time>2019-07-30T07:39:10Z</time>
      </trkpt>
      <trkpt lat="49.64976" lon="4.98794">
        <ele>160.2</ele>
        <time>2019-07-30T07:39:25Z</time>
      </trkpt>
      <trkpt lat="49.64967" lon="4.98826">
        <ele>161.16</ele>
        <time>2019-07-30T07:39:44Z</time>
      </trkpt>
      <trkpt lat="49.64963" lon="4.98853">
        <ele>162.12</ele>
        <time>2019-07-30T07:40:00Z</time>
      </trkpt>
      <trkpt lat="49.64959" lon="4.9888">
        <ele>167.41</ele>
        <time>2019-07-30T07:40:16Z</time>
      </trkpt>
      <trkpt lat="49.64957" lon="4.98905">
        <ele>173.17</ele>
        <time>2019-07-30T07:40:31Z</time>
      </trkpt>
      <trkpt lat="49.64954" lon="4.98919">
        <ele>173.17</ele>
        <time>2019-07-30T07:40:43Z</time>
      </trkpt>
      <trkpt lat="49.64939" lon="4.98905">
        <ele>171.73</ele>
        <time>2019-07-30T07:41:01Z</time>
      </trkpt>
      <trkpt lat="49.64937" lon="4.98903">
        <ele>171.73</ele>
        <time>2019-07-30T07:41:03Z</time>
      </trkpt>
      <trkpt lat="49.64917" lon="4.98891">
        <ele>170.77</ele>
        <time>2019-07-30T07:41:22Z</time>
      </trkpt>
      <trkpt lat="49.64898" lon="4.98882">
        <ele>169.33</ele>
        <time>2019-07-30T07:41:38Z</time>
      </trkpt>
      <trkpt lat="49.64882" lon="4.98876">
        <ele>167.41</ele>
        <time>2019-07-30T07:41:53Z</time>
      </trkpt>
      <trkpt lat="49.64862" lon="4.98866">
        <ele>165</ele>
        <time>2019-07-30T07:42:12Z</time>
      </trkpt>
      <trkpt lat="49.64853" lon="4.98862">
        <ele>164.04</ele>
        <time>2019-07-30T07:42:20Z</time>
      </trkpt>
      <trkpt lat="49.64834" lon="4.98851">
        <ele>162.6</ele>
        <time>2019-07-30T07:42:38Z</time>
      </trkpt>
      <trkpt lat="49.64816" lon="4.98842">
        <ele>161.64</ele>
        <time>2019-07-30T07:42:56Z</time>
      </trkpt>
      <trkpt lat="49.64796" lon="4.9883">
        <ele>161.64</ele>
        <time>2019-07-30T07:43:14Z</time>
      </trkpt>
      <trkpt lat="49.64779" lon="4.98819">
        <ele>162.12</ele>
        <time>2019-07-30T07:43:32Z</time>
      </trkpt>
      <trkpt lat="49.64771" lon="4.98813">
        <ele>163.08</ele>
        <time>2019-07-30T07:43:40Z</time>
      </trkpt>
      <trkpt lat="49.6477" lon="4.98811">
        <ele>163.56</ele>
        <time>2019-07-30T07:43:42Z</time>
      </trkpt>
      <trkpt lat="49.64763" lon="4.98793">
        <ele>164.04</ele>
        <time>2019-07-30T07:44:00Z</time>
      </trkpt>
      <trkpt lat="49.64764" lon="4.98785">
        <ele>165</ele>
        <time>2019-07-30T07:44:17Z</time>
      </trkpt>
      <trkpt lat="49.64768" lon="4.98766">
        <ele>164.52</ele>
        <time>2019-07-30T07:44:31Z</time>
      </trkpt>
      <trkpt lat="49.64774" lon="4.98739">
        <ele>164.52</ele>
        <time>2019-07-30T07:44:46Z</time>
      </trkpt>
      <trkpt lat="49.64777" lon="4.98707">
        <ele>166.45</ele>
        <time>2019-07-30T07:45:04Z</time>
      </trkpt>
      <trkpt lat="49.64778" lon="4.98703">
        <ele>166.45</ele>
        <time>2019-07-30T07:45:06Z</time>
      </trkpt>
      <trkpt lat="49.64775" lon="4.9869">
        <ele>168.85</ele>
        <time>2019-07-30T07:45:18Z</time>
      </trkpt>
      <trkpt lat="49.64775" lon="4.98681">
        <ele>169.81</ele>
        <time>2019-07-30T07:45:36Z</time>
      </trkpt>
      <trkpt lat="49.64777" lon="4.98673">
        <ele>171.25</ele>
        <time>2019-07-30T07:45:40Z</time>
      </trkpt>
      <trkpt lat="49.64782" lon="4.98648">
        <ele>172.21</ele>
        <time>2019-07-30T07:45:56Z</time>
      </trkpt>
      <trkpt lat="49.64781" lon="4.98644">
        <ele>171.25</ele>
        <time>2019-07-30T07:45:59Z</time>
      </trkpt>
      <trkpt lat="49.64768" lon="4.98615">
        <ele>168.37</ele>
        <time>2019-07-30T07:46:16Z</time>
      </trkpt>
      <trkpt lat="49.64754" lon="4.98598">
        <ele>167.41</ele>
        <time>2019-07-30T07:46:32Z</time>
      </trkpt>
      <trkpt lat="49.64742" lon="4.9859">
        <ele>166.93</ele>
        <time>2019-07-30T07:46:43Z</time>
      </trkpt>
      <trkpt lat="49.64735" lon="4.98584">
        <ele>166.45</ele>
        <time>2019-07-30T07:46:49Z</time>
      </trkpt>
      <trkpt lat="49.64716" lon="4.98572">
        <ele>165.48</ele>
        <time>2019-07-30T07:47:06Z</time>
      </trkpt>
      <trkpt lat="49.647" lon="4.98562">
        <ele>165.96</ele>
        <time>2019-07-30T07:47:21Z</time>
      </trkpt>
      <trkpt lat="49.6468" lon="4.98546">
        <ele>166.45</ele>
        <time>2019-07-30T07:47:40Z</time>
      </trkpt>
      <trkpt lat="49.64665" lon="4.98534">
        <ele>168.37</ele>
        <time>2019-07-30T07:47:57Z</time>
      </trkpt>
      <trkpt lat="49.6465" lon="4.98523">
        <ele>169.33</ele>
        <time>2019-07-30T07:48:13Z</time>
      </trkpt>
      <trkpt lat="49.64634" lon="4.98515">
        <ele>167.89</ele>
        <time>2019-07-30T07:48:28Z</time>
      </trkpt>
      <trkpt lat="49.64621" lon="4.98501">
        <ele>168.37</ele>
        <time>2019-07-30T07:48:43Z</time>
      </trkpt>
      <trkpt lat="49.64612" lon="4.98492">
        <ele>168.85</ele>
        <time>2019-07-30T07:48:55Z</time>
      </trkpt>
      <trkpt lat="49.64599" lon="4.98488">
        <ele>168.85</ele>
        <time>2019-07-30T07:49:09Z</time>
      </trkpt>
      <trkpt lat="49.64597" lon="4.98488">
        <ele>167.89</ele>
        <time>2019-07-30T07:49:26Z</time>
      </trkpt>
      <trkpt lat="49.64598" lon="4.98489">
        <ele>168.37</ele>
        <time>2019-07-30T07:50:00Z</time>
      </trkpt>
      <trkpt lat="49.64598" lon="4.98491">
        <ele>168.85</ele>
        <time>2019-07-30T07:50:31Z</time>
      </trkpt>
      <trkpt lat="49.64598" lon="4.98489">
        <ele>167.89</ele>
        <time>2019-07-30T07:50:45Z</time>
      </trkpt>
      <trkpt lat="49.64587" lon="4.98486">
        <ele>167.41</ele>
        <time>2019-07-30T07:50:57Z</time>
      </trkpt>
      <trkpt lat="49.64586" lon="4.98485">
        <ele>167.89</ele>
        <time>2019-07-30T07:50:59Z</time>
      </trkpt>
      <trkpt lat="49.64573" lon="4.98477">
        <ele>166.45</ele>
        <time>2019-07-30T07:51:14Z</time>
      </trkpt>
      <trkpt lat="49.64552" lon="4.98462">
        <ele>164.52</ele>
        <time>2019-07-30T07:51:33Z</time>
      </trkpt>
      <trkpt lat="49.6453" lon="4.9845">
        <ele>161.16</ele>
        <time>2019-07-30T07:51:55Z</time>
      </trkpt>
      <trkpt lat="49.64511" lon="4.98439">
        <ele>158.75</ele>
        <time>2019-07-30T07:52:14Z</time>
      </trkpt>
      <trkpt lat="49.64492" lon="4.98429">
        <ele>156.35</ele>
        <time>2019-07-30T07:52:33Z</time>
      </trkpt>
      <trkpt lat="49.6448" lon="4.9842">
        <ele>156.35</ele>
        <time>2019-07-30T07:52:44Z</time>
      </trkpt>
      <trkpt lat="49.64461" lon="4.98406">
        <ele>157.31</ele>
        <time>2019-07-30T07:53:04Z</time>
      </trkpt>
      <trkpt lat="49.64442" lon="4.98395">
        <ele>157.31</ele>
        <time>2019-07-30T07:53:23Z</time>
      </trkpt>
      <trkpt lat="49.64434" lon="4.9839">
        <ele>158.27</ele>
        <time>2019-07-30T07:53:32Z</time>
      </trkpt>
      <trkpt lat="49.64418" lon="4.9838">
        <ele>158.27</ele>
        <time>2019-07-30T07:53:46Z</time>
      </trkpt>
      <trkpt lat="49.644" lon="4.98368">
        <ele>158.75</ele>
        <time>2019-07-30T07:54:05Z</time>
      </trkpt>
      <trkpt lat="49.64384" lon="4.98357">
        <ele>159.72</ele>
        <time>2019-07-30T07:54:22Z</time>
      </trkpt>
      <trkpt lat="49.64365" lon="4.98345">
        <ele>157.79</ele>
        <time>2019-07-30T07:54:42Z</time>
      </trkpt>
      <trkpt lat="49.64345" lon="4.98328">
        <ele>157.31</ele>
        <time>2019-07-30T07:55:02Z</time>
      </trkpt>
      <trkpt lat="49.64328" lon="4.98313">
        <ele>158.75</ele>
        <time>2019-07-30T07:55:22Z</time>
      </trkpt>
      <trkpt lat="49.64305" lon="4.98297">
        <ele>161.16</ele>
        <time>2019-07-30T07:55:43Z</time>
      </trkpt>
      <trkpt lat="49.64282" lon="4.98274">
        <ele>161.64</ele>
        <time>2019-07-30T07:56:06Z</time>
      </trkpt>
      <trkpt lat="49.64263" lon="4.98259">
        <ele>160.2</ele>
        <time>2019-07-30T07:56:25Z</time>
      </trkpt>
      <trkpt lat="49.64243" lon="4.98241">
        <ele>162.6</ele>
        <time>2019-07-30T07:56:46Z</time>
      </trkpt>
      <trkpt lat="49.64224" lon="4.98222">
        <ele>165.96</ele>
        <time>2019-07-30T07:57:07Z</time>
      </trkpt>
      <trkpt lat="49.64204" lon="4.98202">
        <ele>165.96</ele>
        <time>2019-07-30T07:57:27Z</time>
      </trkpt>
      <trkpt lat="49.64186" lon="4.98182">
        <ele>166.93</ele>
        <time>2019-07-30T07:57:47Z</time>
      </trkpt>
      <trkpt lat="49.6417" lon="4.9817">
        <ele>166.93</ele>
        <time>2019-07-30T07:58:04Z</time>
      </trkpt>
      <trkpt lat="49.6415" lon="4.98151">
        <ele>165</ele>
        <time>2019-07-30T07:58:25Z</time>
      </trkpt>
      <trkpt lat="49.6413" lon="4.98134">
        <ele>165.96</ele>
        <time>2019-07-30T07:58:48Z</time>
      </trkpt>
      <trkpt lat="49.64106" lon="4.98107">
        <ele>164.52</ele>
        <time>2019-07-30T07:59:12Z</time>
      </trkpt>
      <trkpt lat="49.64089" lon="4.98094">
        <ele>165.48</ele>
        <time>2019-07-30T07:59:32Z</time>
      </trkpt>
      <trkpt lat="49.64066" lon="4.98073">
        <ele>165.48</ele>
        <time>2019-07-30T07:59:51Z</time>
      </trkpt>
      <trkpt lat="49.64052" lon="4.98057">
        <ele>163.56</ele>
        <time>2019-07-30T08:00:10Z</time>
      </trkpt>
      <trkpt lat="49.64036" lon="4.9804">
        <ele>163.56</ele>
        <time>2019-07-30T08:00:27Z</time>
      </trkpt>
      <trkpt lat="49.64026" lon="4.98031">
        <ele>164.52</ele>
        <time>2019-07-30T08:00:46Z</time>
      </trkpt>
      <trkpt lat="49.64024" lon="4.98031">
        <ele>163.08</ele>
        <time>2019-07-30T08:01:11Z</time>
      </trkpt>
      <trkpt lat="49.64024" lon="4.9803">
        <ele>163.56</ele>
        <time>2019-07-30T08:01:40Z</time>
      </trkpt>
      <trkpt lat="49.64024" lon="4.98029">
        <ele>163.08</ele>
        <time>2019-07-30T08:02:08Z</time>
      </trkpt>
      <trkpt lat="49.64023" lon="4.98028">
        <ele>163.08</ele>
        <time>2019-07-30T08:02:38Z</time>
      </trkpt>
      <trkpt lat="49.64023" lon="4.98027">
        <ele>162.6</ele>
        <time>2019-07-30T08:03:08Z</time>
      </trkpt>
      <trkpt lat="49.64023" lon="4.98027">
        <ele>162.6</ele>
        <time>2019-07-30T08:03:34Z</time>
      </trkpt>
      <trkpt lat="49.64022" lon="4.98028">
        <ele>163.56</ele>
        <time>2019-07-30T08:04:10Z</time>
      </trkpt>
      <trkpt lat="49.64022" lon="4.98028">
        <ele>164.04</ele>
        <time>2019-07-30T08:04:38Z</time>
      </trkpt>
      <trkpt lat="49.64022" lon="4.98028">
        <ele>164.04</ele>
        <time>2019-07-30T08:05:09Z</time>
      </trkpt>
      <trkpt lat="49.64022" lon="4.98028">
        <ele>165.48</ele>
        <time>2019-07-30T08:05:42Z</time>
      </trkpt>
      <trkpt lat="49.64022" lon="4.98029">
        <ele>166.93</ele>
        <time>2019-07-30T08:06:08Z</time>
      </trkpt>
      <trkpt lat="49.64022" lon="4.98029">
        <ele>167.41</ele>
        <time>2019-07-30T08:06:36Z</time>
      </trkpt>
      <trkpt lat="49.64021" lon="4.98029">
        <ele>166.93</ele>
        <time>2019-07-30T08:07:06Z</time>
      </trkpt>
      <trkpt lat="49.64011" lon="4.98018">
        <ele>167.89</ele>
        <time>2019-07-30T08:07:23Z</time>
      </trkpt>
      <trkpt lat="49.63994" lon="4.98002">
        <ele>168.85</ele>
        <time>2019-07-30T08:07:41Z</time>
      </trkpt>
      <trkpt lat="49.63973" lon="4.97982">
        <ele>167.89</ele>
        <time>2019-07-30T08:08:01Z</time>
      </trkpt>
      <trkpt lat="49.63954" lon="4.97963">
        <ele>167.89</ele>
        <time>2019-07-30T08:08:21Z</time>
      </trkpt>
      <trkpt lat="49.63931" lon="4.97944">
        <ele>168.85</ele>
        <time>2019-07-30T08:08:41Z</time>
      </trkpt>
      <trkpt lat="49.63912" lon="4.97926">
        <ele>168.85</ele>
        <time>2019-07-30T08:09:02Z</time>
      </trkpt>
      <trkpt lat="49.63891" lon="4.97907">
        <ele>167.41</ele>
        <time>2019-07-30T08:09:22Z</time>
      </trkpt>
      <trkpt lat="49.63872" lon="4.97887">
        <ele>167.41</ele>
        <time>2019-07-30T08:09:40Z</time>
      </trkpt>
      <trkpt lat="49.63854" lon="4.97872">
        <ele>167.41</ele>
        <time>2019-07-30T08:10:00Z</time>
      </trkpt>
      <trkpt lat="49.63832" lon="4.97855">
        <ele>165.48</ele>
        <time>2019-07-30T08:10:19Z</time>
      </trkpt>
      <trkpt lat="49.63812" lon="4.97837">
        <ele>165.96</ele>
        <time>2019-07-30T08:10:39Z</time>
      </trkpt>
      <trkpt lat="49.63795" lon="4.97817">
        <ele>168.37</ele>
        <time>2019-07-30T08:10:57Z</time>
      </trkpt>
      <trkpt lat="49.63781" lon="4.97804">
        <ele>169.33</ele>
        <time>2019-07-30T08:11:13Z</time>
      </trkpt>
      <trkpt lat="49.63763" lon="4.97788">
        <ele>169.33</ele>
        <time>2019-07-30T08:11:32Z</time>
      </trkpt>
      <trkpt lat="49.63749" lon="4.97773">
        <ele>170.77</ele>
        <time>2019-07-30T08:11:47Z</time>
      </trkpt>
      <trkpt lat="49.63742" lon="4.97772">
        <ele>169.81</ele>
        <time>2019-07-30T08:12:02Z</time>
      </trkpt>
      <trkpt lat="49.63743" lon="4.97773">
        <ele>169.81</ele>
        <time>2019-07-30T08:12:20Z</time>
      </trkpt>
      <trkpt lat="49.63744" lon="4.97773">
        <ele>169.33</ele>
        <time>2019-07-30T08:12:38Z</time>
      </trkpt>
      <trkpt lat="49.63744" lon="4.97772">
        <ele>169.33</ele>
        <time>2019-07-30T08:13:10Z</time>
      </trkpt>
      <trkpt lat="49.63742" lon="4.9777">
        <ele>169.33</ele>
        <time>2019-07-30T08:13:25Z</time>
      </trkpt>
      <trkpt lat="49.63725" lon="4.97755">
        <ele>168.37</ele>
        <time>2019-07-30T08:13:41Z</time>
      </trkpt>
      <trkpt lat="49.63709" lon="4.97745">
        <ele>166.45</ele>
        <time>2019-07-30T08:13:58Z</time>
      </trkpt>
      <trkpt lat="49.63704" lon="4.97741">
        <ele>166.93</ele>
        <time>2019-07-30T08:14:03Z</time>
      </trkpt>
      <trkpt lat="49.63681" lon="4.97724">
        <ele>167.89</ele>
        <time>2019-07-30T08:14:23Z</time>
      </trkpt>
      <trkpt lat="49.63661" lon="4.97708">
        <ele>167.41</ele>
        <time>2019-07-30T08:14:41Z</time>
      </trkpt>
      <trkpt lat="49.63649" lon="4.977">
        <ele>166.45</ele>
        <time>2019-07-30T08:14:52Z</time>
      </trkpt>
      <trkpt lat="49.6363" lon="4.97679">
        <ele>164.04</ele>
        <time>2019-07-30T08:15:13Z</time>
      </trkpt>
      <trkpt lat="49.63607" lon="4.97663">
        <ele>170.29</ele>
        <time>2019-07-30T08:15:38Z</time>
      </trkpt>
      <trkpt lat="49.63602" lon="4.97667">
        <ele>170.29</ele>
        <time>2019-07-30T08:15:44Z</time>
      </trkpt>
      <trkpt lat="49.63584" lon="4.97682">
        <ele>168.85</ele>
        <time>2019-07-30T08:16:01Z</time>
      </trkpt>
      <trkpt lat="49.6358" lon="4.97686">
        <ele>167.41</ele>
        <time>2019-07-30T08:16:06Z</time>
      </trkpt>
      <trkpt lat="49.63566" lon="4.9771">
        <ele>166.45</ele>
        <time>2019-07-30T08:16:24Z</time>
      </trkpt>
      <trkpt lat="49.63563" lon="4.97716">
        <ele>166.93</ele>
        <time>2019-07-30T08:16:28Z</time>
      </trkpt>
      <trkpt lat="49.63561" lon="4.97723">
        <ele>166.45</ele>
        <time>2019-07-30T08:16:32Z</time>
      </trkpt>
      <trkpt lat="49.63546" lon="4.97748">
        <ele>166.45</ele>
        <time>2019-07-30T08:16:50Z</time>
      </trkpt>
      <trkpt lat="49.63533" lon="4.97771">
        <ele>164.52</ele>
        <time>2019-07-30T08:17:11Z</time>
      </trkpt>
      <trkpt lat="49.63517" lon="4.97786">
        <ele>162.6</ele>
        <time>2019-07-30T08:17:27Z</time>
      </trkpt>
      <trkpt lat="49.63516" lon="4.97791">
        <ele>163.56</ele>
        <time>2019-07-30T08:17:41Z</time>
      </trkpt>
      <trkpt lat="49.63518" lon="4.97792">
        <ele>164.04</ele>
        <time>2019-07-30T08:18:00Z</time>
      </trkpt>
      <trkpt lat="49.63519" lon="4.97791">
        <ele>164.52</ele>
        <time>2019-07-30T08:18:25Z</time>
      </trkpt>
      <trkpt lat="49.63519" lon="4.97792">
        <ele>165</ele>
        <time>2019-07-30T08:18:52Z</time>
      </trkpt>
      <trkpt lat="49.63519" lon="4.97792">
        <ele>165</ele>
        <time>2019-07-30T08:19:11Z</time>
      </trkpt>
      <trkpt lat="49.6352" lon="4.97793">
        <ele>165.48</ele>
        <time>2019-07-30T08:19:37Z</time>
      </trkpt>
      <trkpt lat="49.63519" lon="4.97793">
        <ele>165.96</ele>
        <time>2019-07-30T08:20:05Z</time>
      </trkpt>
      <trkpt lat="49.63519" lon="4.97794">
        <ele>165.48</ele>
        <time>2019-07-30T08:20:29Z</time>
      </trkpt>
      <trkpt lat="49.63519" lon="4.97793">
        <ele>165.48</ele>
        <time>2019-07-30T08:20:53Z</time>
      </trkpt>
      <trkpt lat="49.6352" lon="4.97794">
        <ele>166.45</ele>
        <time>2019-07-30T08:21:16Z</time>
      </trkpt>
      <trkpt lat="49.63519" lon="4.97793">
        <ele>167.41</ele>
        <time>2019-07-30T08:21:39Z</time>
      </trkpt>
      <trkpt lat="49.63518" lon="4.97791">
        <ele>168.37</ele>
        <time>2019-07-30T08:22:08Z</time>
      </trkpt>
      <trkpt lat="49.63517" lon="4.9779">
        <ele>169.81</ele>
        <time>2019-07-30T08:22:31Z</time>
      </trkpt>
      <trkpt lat="49.63517" lon="4.9779">
        <ele>170.29</ele>
        <time>2019-07-30T08:22:59Z</time>
      </trkpt>
      <trkpt lat="49.63518" lon="4.9779">
        <ele>171.25</ele>
        <time>2019-07-30T08:23:26Z</time>
      </trkpt>
      <trkpt lat="49.63517" lon="4.9779">
        <ele>171.25</ele>
        <time>2019-07-30T08:23:59Z</time>
      </trkpt>
      <trkpt lat="49.63516" lon="4.97788">
        <ele>172.69</ele>
        <time>2019-07-30T08:24:25Z</time>
      </trkpt>
      <trkpt lat="49.63516" lon="4.97789">
        <ele>172.21</ele>
        <time>2019-07-30T08:24:53Z</time>
      </trkpt>
      <trkpt lat="49.63515" lon="4.97789">
        <ele>172.21</ele>
        <time>2019-07-30T08:25:22Z</time>
      </trkpt>
      <trkpt lat="49.63514" lon="4.97788">
        <ele>172.69</ele>
        <time>2019-07-30T08:25:40Z</time>
      </trkpt>
      <trkpt lat="49.63515" lon="4.97788">
        <ele>172.69</ele>
        <time>2019-07-30T08:26:03Z</time>
      </trkpt>
      <trkpt lat="49.63514" lon="4.97788">
        <ele>173.17</ele>
        <time>2019-07-30T08:26:32Z</time>
      </trkpt>
      <trkpt lat="49.63515" lon="4.97788">
        <ele>173.17</ele>
        <time>2019-07-30T08:26:55Z</time>
      </trkpt>
      <trkpt lat="49.63515" lon="4.97788">
        <ele>174.14</ele>
        <time>2019-07-30T08:27:22Z</time>
      </trkpt>
      <trkpt lat="49.63515" lon="4.97788">
        <ele>174.62</ele>
        <time>2019-07-30T08:27:49Z</time>
      </trkpt>
      <trkpt lat="49.63514" lon="4.97787">
        <ele>175.1</ele>
        <time>2019-07-30T08:28:24Z</time>
      </trkpt>
      <trkpt lat="49.63514" lon="4.97789">
        <ele>175.1</ele>
        <time>2019-07-30T08:28:46Z</time>
      </trkpt>
      <trkpt lat="49.63514" lon="4.9779">
        <ele>174.62</ele>
        <time>2019-07-30T08:29:09Z</time>
      </trkpt>
      <trkpt lat="49.63514" lon="4.97791">
        <ele>175.58</ele>
        <time>2019-07-30T08:29:39Z</time>
      </trkpt>
      <trkpt lat="49.63514" lon="4.97791">
        <ele>176.06</ele>
        <time>2019-07-30T08:30:07Z</time>
      </trkpt>
      <trkpt lat="49.63514" lon="4.9779">
        <ele>176.54</ele>
        <time>2019-07-30T08:30:34Z</time>
      </trkpt>
      <trkpt lat="49.63515" lon="4.97791">
        <ele>177.02</ele>
        <time>2019-07-30T08:30:56Z</time>
      </trkpt>
      <trkpt lat="49.63515" lon="4.97791">
        <ele>177.02</ele>
        <time>2019-07-30T08:31:20Z</time>
      </trkpt>
      <trkpt lat="49.63515" lon="4.97791">
        <ele>176.06</ele>
        <time>2019-07-30T08:31:49Z</time>
      </trkpt>
      <trkpt lat="49.63516" lon="4.97791">
        <ele>176.54</ele>
        <time>2019-07-30T08:32:07Z</time>
      </trkpt>
      <trkpt lat="49.63516" lon="4.97791">
        <ele>176.06</ele>
        <time>2019-07-30T08:32:33Z</time>
      </trkpt>
      <trkpt lat="49.63516" lon="4.9779">
        <ele>175.58</ele>
        <time>2019-07-30T08:32:53Z</time>
      </trkpt>
      <trkpt lat="49.63516" lon="4.9779">
        <ele>176.54</ele>
        <time>2019-07-30T08:33:20Z</time>
      </trkpt>
      <trkpt lat="49.63516" lon="4.97788">
        <ele>177.02</ele>
        <time>2019-07-30T08:33:46Z</time>
      </trkpt>
      <trkpt lat="49.63516" lon="4.97788">
        <ele>177.02</ele>
        <time>2019-07-30T08:34:13Z</time>
      </trkpt>
      <trkpt lat="49.63517" lon="4.97788">
        <ele>176.06</ele>
        <time>2019-07-30T08:34:48Z</time>
      </trkpt>
      <trkpt lat="49.63518" lon="4.97788">
        <ele>176.54</ele>
        <time>2019-07-30T08:35:18Z</time>
      </trkpt>
      <trkpt lat="49.63518" lon="4.97787">
        <ele>176.06</ele>
        <time>2019-07-30T08:35:47Z</time>
      </trkpt>
      <trkpt lat="49.63518" lon="4.97787">
        <ele>176.06</ele>
        <time>2019-07-30T08:36:11Z</time>
      </trkpt>
      <trkpt lat="49.63509" lon="4.97794">
        <ele>175.1</ele>
        <time>2019-07-30T08:36:25Z</time>
      </trkpt>
      <trkpt lat="49.63493" lon="4.97812">
        <ele>172.69</ele>
        <time>2019-07-30T08:36:43Z</time>
      </trkpt>
      <trkpt lat="49.6348" lon="4.97835">
        <ele>172.21</ele>
        <time>2019-07-30T08:36:59Z</time>
      </trkpt>
      <trkpt lat="49.63479" lon="4.97841">
        <ele>171.73</ele>
        <time>2019-07-30T08:37:02Z</time>
      </trkpt>
      <trkpt lat="49.63465" lon="4.97861">
        <ele>169.33</ele>
        <time>2019-07-30T08:37:19Z</time>
      </trkpt>
      <trkpt lat="49.63452" lon="4.97875">
        <ele>170.77</ele>
        <time>2019-07-30T08:37:34Z</time>
      </trkpt>
      <trkpt lat="49.63432" lon="4.97896">
        <ele>172.69</ele>
        <time>2019-07-30T08:37:55Z</time>
      </trkpt>
      <trkpt lat="49.63419" lon="4.97904">
        <ele>176.54</ele>
        <time>2019-07-30T08:38:09Z</time>
      </trkpt>
      <trkpt lat="49.63402" lon="4.97918">
        <ele>179.9</ele>
        <time>2019-07-30T08:38:27Z</time>
      </trkpt>
      <trkpt lat="49.63389" lon="4.97935">
        <ele>180.87</ele>
        <time>2019-07-30T08:38:44Z</time>
      </trkpt>
      <trkpt lat="49.63387" lon="4.9794">
        <ele>181.35</ele>
        <time>2019-07-30T08:38:48Z</time>
      </trkpt>
      <trkpt lat="49.63393" lon="4.97959">
        <ele>180.87</ele>
        <time>2019-07-30T08:39:02Z</time>
      </trkpt>
      <trkpt lat="49.634" lon="4.97983">
        <ele>179.9</ele>
        <time>2019-07-30T08:39:16Z</time>
      </trkpt>
      <trkpt lat="49.63408" lon="4.98004">
        <ele>179.9</ele>
        <time>2019-07-30T08:39:31Z</time>
      </trkpt>
      <trkpt lat="49.63419" lon="4.98021">
        <ele>179.42</ele>
        <time>2019-07-30T08:39:45Z</time>
      </trkpt>
      <trkpt lat="49.63433" lon="4.9804">
        <ele>178.46</ele>
        <time>2019-07-30T08:40:01Z</time>
      </trkpt>
      <trkpt lat="49.63445" lon="4.98051">
        <ele>177.98</ele>
        <time>2019-07-30T08:40:15Z</time>
      </trkpt>
      <trkpt lat="49.63447" lon="4.98052">
        <ele>175.58</ele>
        <time>2019-07-30T08:40:27Z</time>
      </trkpt>
      <trkpt lat="49.63447" lon="4.98048">
        <ele>175.58</ele>
        <time>2019-07-30T08:40:44Z</time>
      </trkpt>
      <trkpt lat="49.63453" lon="4.98038">
        <ele>175.58</ele>
        <time>2019-07-30T08:41:05Z</time>
      </trkpt>
      <trkpt lat="49.63459" lon="4.98036">
        <ele>176.54</ele>
        <time>2019-07-30T08:41:18Z</time>
      </trkpt>
      <trkpt lat="49.63467" lon="4.98046">
        <ele>176.54</ele>
        <time>2019-07-30T08:41:30Z</time>
      </trkpt>
      <trkpt lat="49.63445" lon="4.98022">
        <ele>174.14</ele>
        <time>2019-07-30T11:00:52Z</time>
      </trkpt>
      <trkpt lat="49.63452" lon="4.98013">
        <ele>171.73</ele>
        <time>2019-07-30T11:01:05Z</time>
      </trkpt>
    </trkseg>
  </trk>
</gpx>